Time;durP1;ratioP1;P1;durP2;ratioP2;P2;SDS_P1;SDS_P2;PMS_P1;PMS_P2;Temp;Humidity;BMP_temperature;BMP_pressure;BME280_temperature;BME280_humidity;BME280_pressure;Samples;Min_cycle;Max_cycle;Signal;HPM_P1;HPM_P2
2023/07/19 00:01:14;;;;;;;8.83;4.27;;;;;;;22.01;nan;99261.06;5000837;28;20215;-80
2023/07/19 00:03:39;;;;;;;5.40;4.30;;;;;;;21.98;nan;99261.38;5000999;28;20524;-80
2023/07/19 00:06:05;;;;;;;7.13;4.10;;;;;;;21.96;nan;99258.09;5001962;28;20207;-80
2023/07/19 00:08:31;;;;;;;4.80;4.00;;;;;;;21.95;nan;99251.06;5001473;28;20231;-80
2023/07/19 00:10:56;;;;;;;4.73;4.17;;;;;;;21.95;nan;99251.06;5000705;28;20611;-80
2023/07/19 00:13:23;;;;;;;5.70;4.50;;;;;;;21.93;nan;99247.72;5000944;28;20464;-80
2023/07/19 00:15:48;;;;;;;9.00;4.53;;;;;;;21.93;nan;99250.38;4998017;28;20220;-80
2023/07/19 00:18:14;;;;;;;6.13;4.30;;;;;;;21.94;nan;99249.41;4996522;28;20444;-80
2023/07/19 00:20:39;;;;;;;6.63;4.20;;;;;;;21.95;nan;99243.84;4980970;28;20644;-80
2023/07/19 00:23:05;;;;;;;5.27;4.30;;;;;;;21.94;nan;99238.69;4997846;28;20346;-80
2023/07/19 00:25:30;;;;;;;6.17;5.07;;;;;;;21.92;nan;99240.72;4995622;28;20226;-80
2023/07/19 00:27:55;;;;;;;6.40;4.70;;;;;;;21.94;nan;99238.69;4999195;28;20633;-80
2023/07/19 00:30:21;;;;;;;4.83;4.30;;;;;;;21.98;nan;99245.34;4996299;28;20216;-80
2023/07/19 00:32:46;;;;;;;5.73;4.83;;;;;;;22.00;nan;99237.97;4977929;28;20214;-80
2023/07/19 00:35:12;;;;;;;7.17;4.90;;;;;;;21.96;nan;99236.69;4977655;28;20437;-79
2023/07/19 00:37:38;;;;;;;9.00;5.63;;;;;;;21.95;nan;99256.41;4993896;28;20203;-80
2023/07/19 00:40:05;;;;;;;7.57;4.60;;;;;;;21.94;nan;99252.91;4994824;28;20714;-81
2023/07/19 00:42:30;;;;;;;6.83;4.50;;;;;;;21.93;nan;99266.44;4998204;28;20218;-80
2023/07/19 00:44:56;;;;;;;7.93;4.40;;;;;;;21.87;nan;99268.84;4998287;28;20450;-80
2023/07/19 00:47:22;;;;;;;9.00;7.23;;;;;;;21.81;nan;99266.84;4981893;28;20234;-80
2023/07/19 00:49:48;;;;;;;9.73;4.97;;;;;;;21.68;nan;99257.78;4977998;28;20216;-80
2023/07/19 00:52:14;;;;;;;6.00;5.00;;;;;;;21.59;nan;99259.69;5003216;28;20525;-80
2023/07/19 00:54:40;;;;;;;6.63;5.80;;;;;;;21.53;nan;99255.03;4999461;28;20301;-80
2023/07/19 00:57:07;;;;;;;7.90;5.23;;;;;;;21.46;nan;99257.56;4996119;28;20479;-80
2023/07/19 00:59:34;;;;;;;6.07;5.10;;;;;;;21.40;nan;99251.09;5003065;28;20213;-80
2023/07/19 01:01:59;;;;;;;8.07;5.43;;;;;;;21.38;nan;99258.44;4976907;28;20829;-80
2023/07/19 01:04:27;;;;;;;9.80;5.10;;;;;;;21.38;nan;99249.59;4982159;28;20437;-80
2023/07/19 01:06:52;;;;;;;8.23;6.80;;;;;;;21.43;nan;99252.59;4998476;28;20514;-80
2023/07/19 01:09:18;;;;;;;8.33;5.13;;;;;;;21.45;nan;99249.75;4981071;28;21003;-80
2023/07/19 01:11:43;;;;;;;9.43;5.93;;;;;;;21.41;nan;99255.44;4998238;28;20225;-80
2023/07/19 01:14:09;;;;;;;7.30;6.60;;;;;;;21.33;nan;99243.94;4999235;28;20220;-80
2023/07/19 01:16:35;;;;;;;5.67;5.17;;;;;;;21.22;nan;99247.81;4996412;28;20274;-80
2023/07/19 01:19:01;;;;;;;10.50;5.70;;;;;;;21.19;nan;99249.00;4997314;28;20228;-80
2023/07/19 01:21:26;;;;;;;8.30;6.63;;;;;;;21.13;nan;99256.91;4994963;28;20486;-80
2023/07/19 01:23:52;;;;;;;14.13;5.87;;;;;;;21.10;nan;99241.22;4985854;28;20227;-80
2023/07/19 01:26:17;;;;;;;6.90;5.37;;;;;;;21.08;nan;99233.38;4997222;28;20542;-80
2023/07/19 01:28:43;;;;;;;8.53;5.63;;;;;;;21.08;nan;99238.72;4997608;28;20578;-79
2023/07/19 01:31:11;;;;;;;9.10;6.33;;;;;;;21.09;nan;99247.56;4972943;28;20736;-80
2023/07/19 01:33:37;;;;;;;6.80;6.10;;;;;;;21.08;nan;99246.72;4997165;28;20207;-80
2023/07/19 01:36:03;;;;;;;9.27;6.40;;;;;;;21.12;nan;99241.88;4977043;28;20439;-80
2023/07/19 01:38:28;;;;;;;6.70;5.40;;;;;;;21.17;nan;99242.16;4994838;28;20219;-80
2023/07/19 01:40:54;;;;;;;9.30;6.37;;;;;;;21.20;nan;99245.34;4995829;28;20218;-80
2023/07/19 01:43:19;;;;;;;9.83;6.57;;;;;;;21.24;nan;99237.81;5001598;28;20286;-80
2023/07/19 01:45:45;;;;;;;9.70;5.77;;;;;;;21.24;nan;99243.16;4987798;28;20216;-80
2023/07/19 01:48:12;;;;;;;6.93;4.80;;;;;;;21.24;nan;99253.81;4995589;28;20235;-80
2023/07/19 01:50:37;;;;;;;5.97;5.37;;;;;;;21.21;nan;99246.16;5001225;28;20480;-80
2023/07/19 01:53:03;;;;;;;6.60;5.20;;;;;;;21.16;nan;99256.53;5003891;28;20207;-80
2023/07/19 01:55:28;;;;;;;6.97;5.13;;;;;;;21.08;nan;99251.25;5004692;28;20567;-80
2023/07/19 01:57:54;;;;;;;6.17;5.37;;;;;;;21.00;nan;99250.25;5005126;28;20241;-80
2023/07/19 02:00:19;;;;;;;7.20;5.90;;;;;;;20.91;nan;99248.63;5004769;28;20768;-80
2023/07/19 02:02:45;;;;;;;8.77;6.20;;;;;;;20.85;nan;99260.03;5001357;28;20212;-80
2023/07/19 02:05:10;;;;;;;6.37;5.07;;;;;;;20.84;nan;99252.16;5003579;28;20464;-80
2023/07/19 02:07:36;;;;;;;6.90;6.20;;;;;;;20.82;nan;99257.69;4982803;28;20218;-80
2023/07/19 02:10:03;;;;;;;6.73;6.10;;;;;;;20.80;nan;99262.38;4986897;28;20231;-80
2023/07/19 02:12:28;;;;;;;6.27;4.93;;;;;;;20.75;nan;99259.38;4998350;28;20266;-80
2023/07/19 02:14:54;;;;;;;7.50;5.30;;;;;;;20.72;nan;99268.56;4988443;28;20464;-80
2023/07/19 02:17:20;;;;;;;7.07;4.63;;;;;;;20.70;nan;99259.06;4987726;28;20582;-80
2023/07/19 02:19:46;;;;;;;6.10;5.43;;;;;;;20.67;nan;99268.22;5007086;28;20458;-80
2023/07/19 02:22:12;;;;;;;7.93;4.63;;;;;;;20.68;nan;99272.56;5011762;28;20506;-81
2023/07/19 02:24:37;;;;;;;5.93;4.20;;;;;;;20.71;nan;99258.91;4994619;28;20533;-80
2023/07/19 02:27:03;;;;;;;5.10;4.60;;;;;;;20.71;nan;99263.38;5007913;28;20464;-80
2023/07/19 02:29:28;;;;;;;6.47;4.27;;;;;;;20.70;nan;99257.22;5007179;28;20212;-80
2023/07/19 02:31:54;;;;;;;10.40;5.33;;;;;;;20.69;nan;99257.41;5007375;28;20232;-80
2023/07/19 02:34:20;;;;;;;6.03;5.40;;;;;;;20.72;nan;99273.06;4990856;28;20435;-80
2023/07/19 02:36:48;;;;;;;9.20;4.73;;;;;;;20.74;nan;99269.22;5009809;28;20454;-80
2023/07/19 02:39:13;;;;;;;5.00;4.47;;;;;;;20.74;nan;99273.75;4999752;28;20516;-80
2023/07/19 02:41:39;;;;;;;6.57;5.30;;;;;;;20.69;nan;99278.75;4995303;28;21118;-80
2023/07/19 02:44:04;;;;;;;10.13;5.60;;;;;;;20.65;nan;99280.09;4996125;28;20261;-80
2023/07/19 02:46:29;;;;;;;5.97;4.77;;;;;;;20.66;nan;99287.09;4995176;28;20237;-80
2023/07/19 02:48:55;;;;;;;8.07;5.00;;;;;;;20.64;nan;99278.44;4995814;28;20472;-80
2023/07/19 02:51:23;;;;;;;5.77;4.33;;;;;;;20.65;nan;99290.75;4992586;28;20753;-80
2023/07/19 02:53:49;;;;;;;7.17;5.00;;;;;;;20.63;nan;99293.63;4978054;28;20464;-80
2023/07/19 02:56:14;;;;;;;8.37;4.93;;;;;;;20.62;nan;99296.44;4979359;28;20219;-80
2023/07/19 02:58:41;;;;;;;8.47;5.77;;;;;;;20.58;nan;99290.63;4996431;28;20488;-80
2023/07/19 03:01:07;;;;;;;6.50;5.30;;;;;;;20.57;nan;99294.28;4998861;28;20220;-80
2023/07/19 03:03:32;;;;;;;6.37;4.27;;;;;;;20.59;nan;99297.59;4976852;28;20450;-80
2023/07/19 03:05:58;;;;;;;8.50;6.50;;;;;;;20.60;nan;99298.44;4994900;28;20500;-80
2023/07/19 03:08:23;;;;;;;9.37;4.90;;;;;;;20.57;nan;99294.28;4995852;28;20248;-80
2023/07/19 03:10:53;;;;;;;9.53;5.50;;;;;;;20.54;nan;99291.94;4997617;28;20494;-80
2023/07/19 03:13:19;;;;;;;9.80;6.00;;;;;;;20.53;nan;99285.78;4998079;28;20289;-80
2023/07/19 03:15:46;;;;;;;6.50;5.20;;;;;;;20.55;nan;99298.97;4982586;28;20448;-80
2023/07/19 03:18:11;;;;;;;5.87;4.30;;;;;;;20.57;nan;99296.09;4978802;28;20205;-80
2023/07/19 03:20:37;;;;;;;9.20;4.93;;;;;;;20.52;nan;99302.78;4996049;28;20815;-80
2023/07/19 03:23:03;;;;;;;6.83;5.43;;;;;;;20.47;nan;99313.13;4980812;28;20290;-81
2023/07/19 03:25:29;;;;;;;9.00;5.87;;;;;;;20.47;nan;99318.44;4979990;28;20466;-80
2023/07/19 03:27:56;;;;;;;7.63;5.17;;;;;;;20.42;nan;99318.13;4980910;28;20836;-80
2023/07/19 03:30:21;;;;;;;5.50;4.57;;;;;;;20.32;nan;99315.59;4995469;28;20447;-81
2023/07/19 03:32:47;;;;;;;8.20;5.37;;;;;;;20.29;nan;99315.13;4994858;28;20715;-81
2023/07/19 03:35:13;;;;;;;5.70;5.20;;;;;;;20.26;nan;99324.28;4998854;28;20513;-80
2023/07/19 03:37:44;;;;;;;5.60;4.80;;;;;;;20.27;nan;99330.44;4978672;28;21089;-80
2023/07/19 03:40:11;;;;;;;7.87;5.33;;;;;;;20.23;nan;99329.97;4997752;28;21004;-80
2023/07/19 03:42:36;;;;;;;6.47;4.97;;;;;;;20.21;nan;99331.13;4975197;28;21030;-81
2023/07/19 03:45:02;;;;;;;6.93;5.67;;;;;;;20.14;nan;99330.94;4997212;28;20472;-80
2023/07/19 03:47:27;;;;;;;7.77;5.70;;;;;;;20.11;nan;99324.09;4965191;28;20580;-80
2023/07/19 03:49:54;;;;;;;8.10;6.80;;;;;;;20.12;nan;99319.63;4980494;28;20396;-80
2023/07/19 03:52:19;;;;;;;10.07;5.10;;;;;;;20.12;nan;99327.63;4988174;28;20576;-81
2023/07/19 03:54:46;;;;;;;9.00;4.73;;;;;;;20.13;nan;99323.13;4982353;28;20238;-80
2023/07/19 03:57:11;;;;;;;6.90;5.43;;;;;;;20.10;nan;99325.13;4980230;28;20497;-80
2023/07/19 03:59:37;;;;;;;5.93;5.00;;;;;;;20.08;nan;99324.44;4983698;28;20683;-79
2023/07/19 04:02:03;;;;;;;6.83;4.47;;;;;;;20.12;nan;99324.97;4974708;28;20556;-79
2023/07/19 04:04:29;;;;;;;10.77;5.40;;;;;;;20.16;nan;99328.94;4974818;28;20214;-80
2023/07/19 04:06:57;;;;;;;8.40;5.10;;;;;;;20.20;nan;99329.44;4975075;28;20484;-79
2023/07/19 04:09:22;;;;;;;8.27;5.43;;;;;;;20.24;nan;99330.78;4989150;28;20874;-80
2023/07/19 04:11:48;;;;;;;6.27;4.73;;;;;;;20.25;nan;99337.78;4989230;28;20225;-79
2023/07/19 04:14:13;;;;;;;8.80;4.90;;;;;;;20.25;nan;99340.44;4991723;28;20248;-79
2023/07/19 04:16:40;;;;;;;5.20;4.53;;;;;;;20.22;nan;99341.59;4991531;28;20296;-80
2023/07/19 04:19:06;;;;;;;6.07;5.10;;;;;;;20.19;nan;99344.63;4976860;28;20454;-80
2023/07/19 04:21:31;;;;;;;7.47;5.37;;;;;;;20.18;nan;99342.97;4974375;28;20470;-79
2023/07/19 04:23:57;;;;;;;7.00;4.90;;;;;;;20.24;nan;99344.94;4974286;28;20790;-81
2023/07/19 04:26:23;;;;;;;9.83;5.73;;;;;;;20.30;nan;99340.78;4988623;28;20777;-79
2023/07/19 04:28:48;;;;;;;5.90;5.17;;;;;;;20.32;nan;99342.28;4973914;28;20216;-79
2023/07/19 04:31:13;;;;;;;6.13;5.23;;;;;;;20.33;nan;99338.63;4973238;28;20264;-81
2023/07/19 04:33:39;;;;;;;6.93;5.23;;;;;;;20.35;nan;99349.13;4975565;28;20214;-79
2023/07/19 04:36:12;;;;;;;7.43;5.50;;;;;;;20.38;nan;99343.44;4991927;28;20439;-80
2023/07/19 04:38:39;;;;;;;8.30;5.70;;;;;;;20.42;nan;99344.78;4993633;28;20232;-80
2023/07/19 04:41:05;;;;;;;6.03;4.10;;;;;;;20.50;nan;99347.47;4990176;28;20451;-79
2023/07/19 04:43:31;;;;;;;7.33;4.93;;;;;;;20.58;nan;99351.13;4993550;28;20796;-79
2023/07/19 04:45:57;;;;;;;8.97;5.17;;;;;;;20.66;nan;99351.97;4980084;28;20470;-80
2023/07/19 04:48:23;;;;;;;6.80;4.70;;;;;;;20.72;nan;99347.81;4990102;28;20221;-79
2023/07/19 04:50:53;;;;;;;6.27;4.53;;;;;;;20.75;nan;99361.63;4974870;28;20655;-80
2023/07/19 04:53:21;;;;;;;5.43;4.90;;;;;;;20.76;nan;99351.78;4973100;28;20214;-79
2023/07/19 04:55:46;;;;;;;8.10;5.17;;;;;;;20.76;nan;99346.44;4974996;28;20503;-79
2023/07/19 04:58:12;;;;;;;7.13;5.50;;;;;;;20.81;nan;99354.78;4991540;28;20513;-79
2023/07/19 05:00:39;;;;;;;7.33;5.40;;;;;;;20.85;nan;99345.44;4976523;28;20245;-80
2023/07/19 05:03:04;;;;;;;5.53;5.03;;;;;;;20.88;nan;99349.63;4988199;28;20575;-78
2023/07/19 05:05:30;;;;;;;8.07;5.70;;;;;;;20.91;nan;99344.75;4971012;28;20442;-79
2023/07/19 05:07:56;;;;;;;8.70;5.50;;;;;;;21.02;nan;99343.56;4968732;28;20472;-80
2023/07/19 05:10:22;;;;;;;9.03;5.50;;;;;;;21.12;nan;99348.72;4970223;28;20526;-78
2023/07/19 05:12:48;;;;;;;8.13;5.03;;;;;;;21.22;nan;99352.00;4970875;28;20666;-78
2023/07/19 05:15:13;;;;;;;5.77;5.10;;;;;;;21.49;nan;99355.25;4985184;28;20207;-80
2023/07/19 05:17:40;;;;;;;6.70;4.37;;;;;;;21.96;nan;99349.84;4975983;28;20534;-79
2023/07/19 05:20:07;;;;;;;8.13;5.73;;;;;;;22.51;nan;99355.97;4978329;28;20543;-79
2023/07/19 05:22:33;;;;;;;7.73;4.73;;;;;;;23.07;nan;99353.75;4989203;28;20362;-80
2023/07/19 05:24:59;;;;;;;9.27;4.70;;;;;;;23.58;nan;99347.63;4974472;28;20473;-78
2023/07/19 05:27:24;;;;;;;5.70;3.90;;;;;;;24.00;nan;99349.56;4987778;28;20860;-79
2023/07/19 05:29:50;;;;;;;6.40;5.60;;;;;;;24.36;nan;99342.44;4991003;28;20649;-79
2023/07/19 05:32:15;;;;;;;8.07;5.87;;;;;;;24.68;nan;99341.94;4995136;28;20220;-79
2023/07/19 05:34:41;;;;;;;9.37;6.47;;;;;;;25.03;nan;99338.44;4988309;28;20462;-78
2023/07/19 05:37:07;;;;;;;7.33;5.10;;;;;;;25.37;nan;99343.00;4991158;28;21216;-80
2023/07/19 05:39:35;;;;;;;7.67;5.37;;;;;;;25.76;nan;99347.69;4990546;28;20851;-78
2023/07/19 05:42:01;;;;;;;7.73;4.70;;;;;;;26.13;nan;99340.13;4989412;28;20303;-78
2023/07/19 05:44:27;;;;;;;5.53;5.00;;;;;;;26.51;nan;99349.50;4980353;28;20511;-79
2023/07/19 05:46:53;;;;;;;6.73;4.67;;;;;;;26.88;nan;99346.16;4990955;28;20587;-79
2023/07/19 05:49:19;;;;;;;5.13;4.30;;;;;;;27.20;nan;99356.31;4990584;28;20225;-78
2023/07/19 05:51:45;;;;;;;8.83;5.10;;;;;;;27.47;nan;99348.94;4993976;28;20491;-80
2023/07/19 05:54:10;;;;;;;5.77;4.67;;;;;;;27.76;nan;99344.84;4998026;28;20469;-83
2023/07/19 05:56:36;;;;;;;5.23;4.70;;;;;;;28.10;nan;99346.34;4998115;28;20222;-84
2023/07/19 05:59:02;;;;;;;10.50;5.43;;;;;;;28.37;nan;99330.78;4998789;28;20984;-77
2023/07/19 06:01:29;;;;;;;8.87;6.30;;;;;;;28.60;nan;99334.78;4998979;28;20565;-83
2023/07/19 06:03:54;;;;;;;8.83;5.40;;;;;;;28.76;nan;99338.78;5001043;28;20489;-80
2023/07/19 06:06:20;;;;;;;6.67;4.17;;;;;;;28.97;nan;99343.75;4996263;28;20868;-81
2023/07/19 06:08:45;;;;;;;5.77;5.00;;;;;;;29.17;nan;99340.06;4994950;28;20220;-83
2023/07/19 06:11:10;;;;;;;5.77;4.53;;;;;;;29.33;nan;99340.28;4999964;28;20664;-80
2023/07/19 06:13:36;;;;;;;5.43;4.93;;;;;;;29.52;nan;99332.97;4998408;28;20265;-79
2023/07/19 06:16:01;;;;;;;5.00;4.00;;;;;;;29.65;nan;99334.72;4999976;28;20202;-84
2023/07/19 06:18:27;;;;;;;5.30;4.80;;;;;;;29.83;nan;99323.00;4997002;28;20199;-79
2023/07/19 06:20:53;;;;;;;6.93;4.10;;;;;;;30.03;nan;99325.44;4998444;28;20220;-78
2023/07/19 06:23:18;;;;;;;6.90;4.80;;;;;;;30.17;nan;99323.34;4997822;28;20195;-84
2023/07/19 06:25:45;;;;;;;6.80;4.63;;;;;;;30.27;nan;99322.78;5000240;28;20202;-82
2023/07/19 06:28:11;;;;;;;7.73;4.80;;;;;;;30.42;nan;99317.75;4995702;28;20215;-85
2023/07/19 06:30:36;;;;;;;7.20;4.23;;;;;;;30.47;nan;99317.06;4998384;28;20466;-82
2023/07/19 06:33:02;;;;;;;5.77;4.17;;;;;;;30.62;nan;99315.53;4994446;28;20978;-78
2023/07/19 06:35:27;;;;;;;9.30;4.60;;;;;;;30.76;nan;99316.13;4998940;28;20206;-79
2023/07/19 06:37:53;;;;;;;5.13;4.40;;;;;;;30.84;nan;99312.25;4991710;28;20452;-84
2023/07/19 06:40:18;;;;;;;5.50;4.70;;;;;;;31.01;nan;99315.06;4978384;28;20206;-85
2023/07/19 06:42:45;;;;;;;4.30;3.70;;;;;;;31.13;nan;99305.00;4999886;28;20230;-80
2023/07/19 06:45:11;;;;;;;9.00;4.60;;;;;;;31.31;nan;99317.59;5003441;28;20654;-84
2023/07/19 06:47:36;;;;;;;4.70;4.20;;;;;;;31.40;nan;99308.00;5002225;28;20538;-87
2023/07/19 06:50:03;;;;;;;5.13;4.50;;;;;;;31.43;nan;99304.00;5001329;28;20254;-81
2023/07/19 06:52:28;;;;;;;7.47;4.23;;;;;;;31.47;nan;99306.00;5002467;28;20594;-84
2023/07/19 06:54:53;;;;;;;4.80;4.30;;;;;;;31.67;nan;99299.31;5001292;28;21061;-84
2023/07/19 07:02:38;;;;;;;6.43;4.13;;;;;;;31.78;nan;99292.97;4946058;28;20909;-84
2023/07/19 07:05:04;;;;;;;6.60;4.00;;;;;;;31.84;nan;99294.75;4942940;28;20715;-80
2023/07/19 07:07:29;;;;;;;5.10;3.97;;;;;;;32.04;nan;99296.19;4951619;28;20194;-82
2023/07/19 07:09:57;;;;;;;6.37;4.13;;;;;;;32.20;nan;99292.66;4948414;28;20209;-80
2023/07/19 07:12:23;;;;;;;5.07;4.23;;;;;;;32.28;nan;99296.88;4948914;28;20201;-80
2023/07/19 07:14:48;;;;;;;4.13;3.73;;;;;;;32.30;nan;99292.00;4952970;28;20468;-83
2023/07/19 07:17:14;;;;;;;5.63;4.07;;;;;;;32.42;nan;99289.19;4947284;28;20567;-82
2023/07/19 07:19:39;;;;;;;5.73;3.33;;;;;;;32.56;nan;99285.91;4951291;28;20204;-81
2023/07/19 07:22:05;;;;;;;6.93;4.70;;;;;;;32.66;nan;99287.97;4951043;28;20649;-81
2023/07/19 07:24:31;;;;;;;5.73;3.67;;;;;;;32.83;nan;99287.91;4946889;28;20276;-81
2023/07/19 07:26:56;;;;;;;5.50;3.57;;;;;;;32.93;nan;99284.53;4944321;28;20464;-82
2023/07/19 07:29:21;;;;;;;4.50;3.97;;;;;;;33.16;nan;99283.47;4943871;28;20211;-81
2023/07/19 07:31:47;;;;;;;4.67;4.17;;;;;;;33.08;nan;99294.78;4947068;28;20208;-82
2023/07/19 07:34:12;;;;;;;4.40;3.80;;;;;;;33.15;nan;99290.81;4948546;28;20296;-82
2023/07/19 07:36:38;;;;;;;6.10;3.70;;;;;;;33.34;nan;99290.50;4946952;28;20654;-82
2023/07/19 07:39:05;;;;;;;7.67;4.23;;;;;;;33.53;nan;99289.09;4941824;28;20268;-81
2023/07/19 07:41:31;;;;;;;5.93;3.97;;;;;;;33.59;nan;99288.06;4946764;28;20224;-81
2023/07/19 07:43:57;;;;;;;5.50;4.20;;;;;;;33.81;nan;99289.91;4948227;28;20456;-81
2023/07/19 07:46:22;;;;;;;4.93;3.70;;;;;;;33.93;nan;99283.22;4951495;28;20456;-81
2023/07/19 07:48:48;;;;;;;6.07;4.33;;;;;;;33.92;nan;99286.22;4943672;28;20598;-82
2023/07/19 07:51:13;;;;;;;6.63;4.20;;;;;;;33.95;nan;99284.91;4951867;28;20205;-81
2023/07/19 07:53:39;;;;;;;8.20;3.73;;;;;;;33.98;nan;99274.28;4948857;28;20670;-82
2023/07/19 07:56:04;;;;;;;6.67;4.53;;;;;;;34.00;nan;99274.84;4954718;28;20209;-81
2023/07/19 07:58:30;;;;;;;6.33;3.97;;;;;;;34.11;nan;99273.88;4953336;28;20565;-81
2023/07/19 08:00:55;;;;;;;7.50;4.93;;;;;;;34.00;nan;99272.13;4951919;28;20608;-82
2023/07/19 08:03:20;;;;;;;5.20;3.77;;;;;;;33.62;nan;99265.78;4939288;28;20201;-81
2023/07/19 08:05:46;;;;;;;5.80;4.20;;;;;;;33.08;nan;99271.16;4947784;28;20252;-80
2023/07/19 08:08:11;;;;;;;4.90;3.83;;;;;;;32.63;nan;99269.41;4945395;28;20209;-82
2023/07/19 08:10:40;;;;;;;4.83;3.40;;;;;;;32.29;nan;99263.97;4945833;28;20206;-82
2023/07/19 08:13:07;;;;;;;4.77;4.37;;;;;;;32.15;nan;99265.41;4947124;28;20199;-82
2023/07/19 08:15:33;;;;;;;5.63;3.50;;;;;;;32.10;nan;99262.59;4942163;28;20471;-81
2023/07/19 08:17:58;;;;;;;4.40;4.00;;;;;;;32.03;nan;99262.78;4945246;28;20479;-83
2023/07/19 08:20:24;;;;;;;5.50;3.40;;;;;;;32.04;nan;99263.59;4945570;28;20224;-83
2023/07/19 08:22:51;;;;;;;4.43;4.03;;;;;;;32.13;nan;99260.19;4947190;28;20215;-82
2023/07/19 08:25:19;;;;;;;6.30;3.70;;;;;;;32.23;nan;99253.28;4944480;28;20580;-81
2023/07/19 08:27:45;;;;;;;4.43;3.83;;;;;;;32.36;nan;99259.22;4944418;28;20512;-83
2023/07/19 08:30:15;;;;;;;3.83;3.33;;;;;;;32.36;nan;99251.06;4938925;28;20496;-82
2023/07/19 08:32:47;;;;;;;5.07;3.80;;;;;;;32.32;nan;99252.63;4945216;28;20205;-83
2023/07/19 08:35:14;;;;;;;5.03;3.73;;;;;;;32.35;nan;99256.72;4941527;28;21089;-81
2023/07/19 08:37:42;;;;;;;3.67;2.90;;;;;;;32.25;nan;99254.69;4946676;28;20474;-83
2023/07/19 08:40:09;;;;;;;5.33;3.77;;;;;;;32.09;nan;99252.81;4940166;28;20463;-82
2023/07/19 08:42:35;;;;;;;4.43;3.53;;;;;;;31.98;nan;99257.25;4935573;28;20719;-81
2023/07/19 08:45:02;;;;;;;6.23;3.90;;;;;;;31.91;nan;99246.50;4939743;28;20467;-82
2023/07/19 08:47:32;;;;;;;4.23;3.83;;;;;;;31.81;nan;99240.91;4950457;28;20455;-82
2023/07/19 08:50:07;;;;;;;5.30;4.80;;;;;;;31.74;nan;99242.97;4939457;28;21524;-80
2023/07/19 08:52:33;;;;;;;5.63;3.20;;;;;;;31.78;nan;99246.81;4939270;28;20461;-81
2023/07/19 08:55:02;;;;;;;5.50;3.60;;;;;;;31.78;nan;99241.38;4940712;28;20599;-83
2023/07/19 08:57:28;;;;;;;5.53;3.93;;;;;;;31.83;nan;99237.94;4950073;28;20504;-82
2023/07/19 08:59:54;;;;;;;3.63;3.33;;;;;;;32.07;nan;99230.50;4946714;28;20838;-82
2023/07/19 09:02:19;;;;;;;5.70;4.37;;;;;;;32.24;nan;99225.03;4945459;28;20519;-81
2023/07/19 09:05:10;;;;;;;6.73;3.67;;;;;;;32.40;nan;99232.34;4947565;28;20232;-85
2023/07/19 09:07:37;;;;;;;4.63;3.60;;;;;;;32.57;nan;99232.38;4948117;28;20193;-81
2023/07/19 09:10:05;;;;;;;5.37;3.80;;;;;;;32.80;nan;99226.66;4946222;28;20465;-82
2023/07/19 09:12:42;;;;;;;4.17;3.53;;;;;;;32.94;nan;99234.47;4948328;28;20492;-83
2023/07/19 09:15:09;;;;;;;3.80;3.37;;;;;;;32.95;nan;99217.06;4946468;28;20467;-81
2023/07/19 09:17:43;;;;;;;4.50;3.67;;;;;;;33.03;nan;99219.38;4937309;28;21058;-83
2023/07/19 09:20:09;;;;;;;6.70;3.67;;;;;;;33.14;nan;99212.16;4941808;28;21015;-84
2023/07/19 09:22:36;;;;;;;5.60;3.40;;;;;;;33.21;nan;99210.84;4924593;28;20461;-83
2023/07/19 09:25:03;;;;;;;6.80;3.67;;;;;;;33.29;nan;99212.31;4934148;28;20491;-83
2023/07/19 09:27:30;;;;;;;3.70;2.90;;;;;;;33.36;nan;99206.66;4932492;28;20496;-84
2023/07/19 09:29:56;;;;;;;4.57;3.90;;;;;;;33.41;nan;99195.84;4934583;28;20559;-82
2023/07/19 09:32:23;;;;;;;8.60;4.40;;;;;;;33.50;nan;99192.38;4936051;28;20601;-85
2023/07/19 09:34:54;;;;;;;5.27;3.10;;;;;;;33.51;nan;99193.19;4948560;28;20995;-81
2023/07/19 09:37:21;;;;;;;4.60;3.87;;;;;;;33.52;nan;99189.41;4931447;28;20521;-81
2023/07/19 09:39:47;;;;;;;6.43;3.33;;;;;;;33.55;nan;99197.09;4944171;28;20476;-82
2023/07/19 09:42:13;;;;;;;5.27;3.20;;;;;;;33.57;nan;99192.19;4936975;28;20537;-81
2023/07/19 09:44:39;;;;;;;4.37;2.80;;;;;;;33.62;nan;99189.53;4945212;28;20269;-80
2023/07/19 09:47:09;;;;;;;3.20;2.90;;;;;;;33.69;nan;99189.31;4929959;28;21084;-80
2023/07/19 09:49:36;;;;;;;4.57;3.30;;;;;;;33.82;nan;99177.97;4934686;28;20531;-81
2023/07/19 09:52:03;;;;;;;3.83;3.13;;;;;;;34.03;nan;99184.41;4928005;28;20448;-83
2023/07/19 09:54:31;;;;;;;6.83;3.47;;;;;;;34.09;nan;99177.91;4936197;28;20483;-81
2023/07/19 09:56:57;;;;;;;3.80;3.10;;;;;;;34.12;nan;99174.66;4932318;28;20882;-79
2023/07/19 09:59:28;;;;;;;4.47;4.07;;;;;;;34.14;nan;99177.16;4944854;28;20471;-80
2023/07/19 10:01:53;;;;;;;5.30;3.17;;;;;;;34.22;nan;99176.66;4940424;28;20320;-79
2023/07/19 10:04:25;;;;;;;6.33;3.87;;;;;;;34.25;nan;99175.31;4941271;28;20547;-82
2023/07/19 10:07:09;;;;;;;5.80;3.47;;;;;;;34.27;nan;99178.56;4938746;28;20284;-79
2023/07/19 10:09:37;;;;;;;7.13;3.77;;;;;;;34.19;nan;99169.00;4939335;28;20552;-79
2023/07/19 10:12:26;;;;;;;5.20;3.77;;;;;;;34.19;nan;99166.28;4942680;28;20465;-79
2023/07/19 10:14:54;;;;;;;4.33;2.90;;;;;;;34.23;nan;99172.00;4941272;28;20483;-79
2023/07/19 10:17:20;;;;;;;3.87;3.47;;;;;;;34.19;nan;99171.72;4941731;28;20502;-81
2023/07/19 10:20:06;;;;;;;4.90;3.50;;;;;;;34.05;nan;99175.94;4942858;28;20495;-80
2023/07/19 10:23:06;;;;;;;4.90;4.23;;;;;;;33.79;nan;99172.22;4943098;28;20548;-80
2023/07/19 10:25:45;;;;;;;5.10;3.70;;;;;;;33.74;nan;99173.00;4942716;28;20461;-80
2023/07/19 10:28:12;;;;;;;5.00;4.50;;;;;;;33.70;nan;99180.88;4944028;28;20503;-81
2023/07/19 10:30:52;;;;;;;5.97;3.10;;;;;;;33.72;nan;99175.16;4950811;28;21027;-82
2023/07/19 10:33:21;;;;;;;7.47;4.50;;;;;;;33.66;nan;99165.31;4947445;28;20566;-81
2023/07/19 10:35:49;;;;;;;4.83;3.50;;;;;;;33.68;nan;99172.13;4948162;28;20496;-80
2023/07/19 10:38:20;;;;;;;5.43;3.40;;;;;;;33.82;nan;99171.72;4949355;28;20993;-82
2023/07/19 10:40:49;;;;;;;6.27;3.80;;;;;;;33.98;nan;99165.28;4952302;28;20493;-82
2023/07/19 10:43:15;;;;;;;5.60;3.27;;;;;;;34.18;nan;99166.53;4941117;28;20449;-84
2023/07/19 10:45:41;;;;;;;4.27;3.37;;;;;;;34.33;nan;99178.34;4955176;28;21036;-83
2023/07/19 10:48:07;;;;;;;5.57;3.47;;;;;;;34.35;nan;99172.59;4936673;28;20193;-83
2023/07/19 10:50:32;;;;;;;3.27;2.70;;;;;;;34.12;nan;99176.56;4943191;28;20629;-84
2023/07/19 10:52:58;;;;;;;3.27;2.83;;;;;;;33.86;nan;99184.53;4939056;28;20196;-80
2023/07/19 10:55:23;;;;;;;5.07;3.00;;;;;;;33.54;nan;99170.94;4949050;28;20194;-83
2023/07/19 10:57:55;;;;;;;3.80;3.50;;;;;;;33.32;nan;99175.56;4953292;28;20205;-85
2023/07/19 11:00:21;;;;;;;4.10;3.07;;;;;;;33.09;nan;99174.81;4950329;28;20491;-81
2023/07/19 11:02:46;;;;;;;5.13;3.20;;;;;;;32.88;nan;99181.06;4951108;28;20461;-82
2023/07/19 11:05:13;;;;;;;5.30;2.93;;;;;;;32.82;nan;99174.75;4941148;28;20233;-82
2023/07/19 11:07:38;;;;;;;3.90;3.50;;;;;;;32.94;nan;99172.69;4952643;28;20201;-83
2023/07/19 11:10:05;;;;;;;6.63;3.57;;;;;;;33.11;nan;99167.22;4948102;28;20458;-82
2023/07/19 11:12:31;;;;;;;6.00;3.77;;;;;;;33.30;nan;99175.00;4946735;28;20231;-84
2023/07/19 11:15:00;;;;;;;3.50;2.70;;;;;;;33.47;nan;99173.81;4946557;28;20970;-82
2023/07/19 11:17:29;;;;;;;3.80;2.87;;;;;;;33.55;nan;99163.59;4950381;28;20217;-81
2023/07/19 11:19:58;;;;;;;3.60;2.80;;;;;;;33.56;nan;99162.50;4931717;28;21063;-84
2023/07/19 11:22:26;;;;;;;5.53;2.90;;;;;;;33.38;nan;99167.22;4941250;28;20513;-81
2023/07/19 11:24:53;;;;;;;6.00;3.30;;;;;;;33.21;nan;99167.31;4939786;28;20472;-82
2023/07/19 11:27:32;;;;;;;6.83;3.37;;;;;;;33.11;nan;99169.94;4943627;28;20556;-83
2023/07/19 11:29:57;;;;;;;3.57;3.27;;;;;;;33.03;nan;99165.78;4940851;28;20471;-81
2023/07/19 11:32:23;;;;;;;4.37;2.90;;;;;;;32.93;nan;99164.81;4945121;28;21331;-83
2023/07/19 11:34:59;;;;;;;3.00;2.47;;;;;;;32.85;nan;99163.34;4947275;28;20209;-82
2023/07/19 11:37:29;;;;;;;3.70;3.20;;;;;;;32.80;nan;99157.84;4945693;28;20524;-84
2023/07/19 11:39:58;;;;;;;5.90;3.93;;;;;;;32.77;nan;99158.38;4949027;28;20467;-83
2023/07/19 11:42:47;;;;;;;5.70;2.80;;;;;;;32.70;nan;99161.25;4942365;28;20460;-81
2023/07/19 11:45:19;;;;;;;3.73;2.97;;;;;;;32.76;nan;99159.44;4946076;28;20484;-80
2023/07/19 11:47:47;;;;;;;2.90;2.43;;;;;;;32.80;nan;99161.38;4940426;28;20467;-79
2023/07/19 11:50:13;;;;;;;3.00;2.50;;;;;;;32.86;nan;99153.28;4939343;28;20457;-80
2023/07/19 11:52:54;;;;;;;3.80;2.77;;;;;;;32.92;nan;99154.97;4937447;28;20458;-81
2023/07/19 11:55:20;;;;;;;4.20;2.60;;;;;;;33.08;nan;99156.84;4937382;28;20211;-80